sensor_id;sensor_type;location;lat;lon;timestamp;P1;durP1;ratioP1;P2;durP2;ratioP2
55308;SDS011;44028;51.358;19.876;2022-12-29T00:01:43;24.38;;;8.95;;
55308;SDS011;44028;51.358;19.876;2022-12-29T00:04:12;24.50;;;8.38;;
55308;SDS011;44028;51.358;19.876;2022-12-29T00:06:41;21.10;;;7.70;;
55308;SDS011;44028;51.358;19.876;2022-12-29T00:09:08;20.83;;;7.07;;
55308;SDS011;44028;51.358;19.876;2022-12-29T00:11:39;14.77;;;7.40;;
55308;SDS011;44028;51.358;19.876;2022-12-29T00:14:17;18.45;;;8.13;;
55308;SDS011;44028;51.358;19.876;2022-12-29T00:16:59;18.83;;;8.48;;
55308;SDS011;44028;51.358;19.876;2022-12-29T00:19:30;19.95;;;7.72;;
55308;SDS011;44028;51.358;19.876;2022-12-29T00:22:15;18.67;;;8.00;;
55308;SDS011;44028;51.358;19.876;2022-12-29T00:24:56;17.98;;;6.50;;
55308;SDS011;44028;51.358;19.876;2022-12-29T00:27:32;17.17;;;8.05;;
55308;SDS011;44028;51.358;19.876;2022-12-29T00:30:17;21.23;;;8.95;;
55308;SDS011;44028;51.358;19.876;2022-12-29T00:35:44;17.23;;;6.95;;
55308;SDS011;44028;51.358;19.876;2022-12-29T00:38:23;21.27;;;7.85;;
55308;SDS011;44028;51.358;19.876;2022-12-29T00:41:04;19.38;;;7.20;;
55308;SDS011;44028;51.358;19.876;2022-12-29T00:43:45;18.38;;;7.72;;
55308;SDS011;44028;51.358;19.876;2022-12-29T00:46:25;22.15;;;7.60;;
55308;SDS011;44028;51.358;19.876;2022-12-29T00:48:52;23.10;;;7.38;;
55308;SDS011;44028;51.358;19.876;2022-12-29T00:51:43;19.13;;;6.95;;
55308;SDS011;44028;51.358;19.876;2022-12-29T00:54:10;19.50;;;6.90;;
55308;SDS011;44028;51.358;19.876;2022-12-29T00:56:37;23.48;;;7.43;;
55308;SDS011;44028;51.358;19.876;2022-12-29T00:59:05;17.25;;;7.35;;
55308;SDS011;44028;51.358;19.876;2022-12-29T01:01:33;18.70;;;7.03;;
55308;SDS011;44028;51.358;19.876;2022-12-29T01:04:00;23.40;;;8.30;;
55308;SDS011;44028;51.358;19.876;2022-12-29T01:06:29;18.45;;;6.60;;
55308;SDS011;44028;51.358;19.876;2022-12-29T01:08:56;20.02;;;7.25;;
55308;SDS011;44028;51.358;19.876;2022-12-29T01:11:37;15.93;;;6.38;;
55308;SDS011;44028;51.358;19.876;2022-12-29T01:14:05;20.60;;;8.05;;
55308;SDS011;44028;51.358;19.876;2022-12-29T01:16:32;17.83;;;6.97;;
55308;SDS011;44028;51.358;19.876;2022-12-29T01:19:00;20.90;;;8.45;;
55308;SDS011;44028;51.358;19.876;2022-12-29T01:21:27;30.70;;;12.50;;
55308;SDS011;44028;51.358;19.876;2022-12-29T01:23:54;20.02;;;9.52;;
55308;SDS011;44028;51.358;19.876;2022-12-29T01:26:21;18.10;;;7.03;;
55308;SDS011;44028;51.358;19.876;2022-12-29T01:28:48;21.00;;;8.27;;
55308;SDS011;44028;51.358;19.876;2022-12-29T01:31:15;14.93;;;6.85;;
55308;SDS011;44028;51.358;19.876;2022-12-29T01:33:43;17.10;;;7.10;;
55308;SDS011;44028;51.358;19.876;2022-12-29T01:36:11;18.52;;;7.40;;
55308;SDS011;44028;51.358;19.876;2022-12-29T01:38:39;17.00;;;6.93;;
55308;SDS011;44028;51.358;19.876;2022-12-29T01:41:07;18.27;;;7.45;;
55308;SDS011;44028;51.358;19.876;2022-12-29T01:43:40;16.27;;;6.88;;
55308;SDS011;44028;51.358;19.876;2022-12-29T01:46:19;19.77;;;7.03;;
55308;SDS011;44028;51.358;19.876;2022-12-29T01:48:47;19.13;;;7.00;;
55308;SDS011;44028;51.358;19.876;2022-12-29T01:51:15;16.58;;;7.07;;
55308;SDS011;44028;51.358;19.876;2022-12-29T01:53:43;14.48;;;6.82;;
55308;SDS011;44028;51.358;19.876;2022-12-29T01:56:12;16.70;;;6.90;;
55308;SDS011;44028;51.358;19.876;2022-12-29T01:58:42;20.00;;;8.43;;
55308;SDS011;44028;51.358;19.876;2022-12-29T02:01:11;18.98;;;7.93;;
55308;SDS011;44028;51.358;19.876;2022-12-29T02:03:38;19.98;;;7.53;;
55308;SDS011;44028;51.358;19.876;2022-12-29T02:06:10;16.55;;;6.82;;
55308;SDS011;44028;51.358;19.876;2022-12-29T02:08:39;19.88;;;7.32;;
55308;SDS011;44028;51.358;19.876;2022-12-29T02:11:07;19.10;;;7.93;;
55308;SDS011;44028;51.358;19.876;2022-12-29T02:13:34;19.67;;;7.25;;
55308;SDS011;44028;51.358;19.876;2022-12-29T02:18:41;16.70;;;7.45;;
55308;SDS011;44028;51.358;19.876;2022-12-29T02:21:25;16.15;;;7.35;;
55308;SDS011;44028;51.358;19.876;2022-12-29T02:29:02;16.83;;;7.20;;
55308;SDS011;44028;51.358;19.876;2022-12-29T02:42:00;15.77;;;6.68;;
55308;SDS011;44028;51.358;19.876;2022-12-29T02:47:13;13.43;;;6.40;;
55308;SDS011;44028;51.358;19.876;2022-12-29T02:52:30;12.55;;;6.18;;
55308;SDS011;44028;51.358;19.876;2022-12-29T02:54:58;14.55;;;6.00;;
55308;SDS011;44028;51.358;19.876;2022-12-29T02:59:53;28.20;;;10.20;;
55308;SDS011;44028;51.358;19.876;2022-12-29T03:03:05;20.17;;;7.90;;
55308;SDS011;44028;51.358;19.876;2022-12-29T03:05:21;21.10;;;7.10;;
55308;SDS011;44028;51.358;19.876;2022-12-29T03:13:11;17.40;;;6.43;;
55308;SDS011;44028;51.358;19.876;2022-12-29T03:15:55;21.73;;;6.70;;
55308;SDS011;44028;51.358;19.876;2022-12-29T03:18:34;19.15;;;6.80;;
55308;SDS011;44028;51.358;19.876;2022-12-29T03:23:48;18.25;;;6.95;;
55308;SDS011;44028;51.358;19.876;2022-12-29T03:26:17;16.73;;;6.70;;
55308;SDS011;44028;51.358;19.876;2022-12-29T03:28:51;20.58;;;7.00;;
55308;SDS011;44028;51.358;19.876;2022-12-29T03:31:20;21.50;;;6.53;;
55308;SDS011;44028;51.358;19.876;2022-12-29T03:33:48;24.67;;;7.68;;
55308;SDS011;44028;51.358;19.876;2022-12-29T03:36:22;22.90;;;6.95;;
55308;SDS011;44028;51.358;19.876;2022-12-29T03:38:52;25.42;;;7.72;;
55308;SDS011;44028;51.358;19.876;2022-12-29T03:41:23;19.33;;;7.57;;
55308;SDS011;44028;51.358;19.876;2022-12-29T03:43:51;23.85;;;9.07;;
55308;SDS011;44028;51.358;19.876;2022-12-29T03:46:18;18.88;;;7.22;;
55308;SDS011;44028;51.358;19.876;2022-12-29T03:48:45;17.48;;;7.18;;
55308;SDS011;44028;51.358;19.876;2022-12-29T03:51:12;17.38;;;7.28;;
55308;SDS011;44028;51.358;19.876;2022-12-29T03:53:39;13.48;;;6.50;;
55308;SDS011;44028;51.358;19.876;2022-12-29T03:56:07;15.57;;;6.82;;
55308;SDS011;44028;51.358;19.876;2022-12-29T03:58:37;16.50;;;7.32;;
55308;SDS011;44028;51.358;19.876;2022-12-29T04:01:04;15.65;;;6.60;;
55308;SDS011;44028;51.358;19.876;2022-12-29T04:03:37;12.10;;;5.82;;
55308;SDS011;44028;51.358;19.876;2022-12-29T04:06:04;13.60;;;5.95;;
55308;SDS011;44028;51.358;19.876;2022-12-29T04:08:34;10.82;;;5.20;;
55308;SDS011;44028;51.358;19.876;2022-12-29T04:11:01;11.38;;;5.32;;
55308;SDS011;44028;51.358;19.876;2022-12-29T04:13:28;15.25;;;5.70;;
55308;SDS011;44028;51.358;19.876;2022-12-29T04:15:55;11.13;;;5.18;;
55308;SDS011;44028;51.358;19.876;2022-12-29T04:18:22;15.68;;;5.72;;
55308;SDS011;44028;51.358;19.876;2022-12-29T04:20:49;19.23;;;6.50;;
55308;SDS011;44028;51.358;19.876;2022-12-29T04:23:31;17.98;;;7.13;;
55308;SDS011;44028;51.358;19.876;2022-12-29T04:25:58;15.98;;;6.13;;
55308;SDS011;44028;51.358;19.876;2022-12-29T04:28:25;17.50;;;6.07;;
55308;SDS011;44028;51.358;19.876;2022-12-29T04:30:53;15.68;;;6.60;;
55308;SDS011;44028;51.358;19.876;2022-12-29T04:33:20;15.55;;;6.65;;
55308;SDS011;44028;51.358;19.876;2022-12-29T04:35:47;14.80;;;6.18;;
55308;SDS011;44028;51.358;19.876;2022-12-29T04:38:14;17.35;;;7.90;;
55308;SDS011;44028;51.358;19.876;2022-12-29T04:40:42;14.13;;;6.00;;
55308;SDS011;44028;51.358;19.876;2022-12-29T04:43:09;16.27;;;6.30;;
55308;SDS011;44028;51.358;19.876;2022-12-29T04:45:43;14.52;;;5.70;;
55308;SDS011;44028;51.358;19.876;2022-12-29T04:48:13;11.25;;;5.43;;
55308;SDS011;44028;51.358;19.876;2022-12-29T04:50:43;12.63;;;6.03;;
55308;SDS011;44028;51.358;19.876;2022-12-29T04:53:10;13.60;;;5.22;;
55308;SDS011;44028;51.358;19.876;2022-12-29T04:55:37;10.48;;;4.90;;
55308;SDS011;44028;51.358;19.876;2022-12-29T04:58:05;13.10;;;5.20;;
55308;SDS011;44028;51.358;19.876;2022-12-29T05:00:33;14.55;;;5.78;;
55308;SDS011;44028;51.358;19.876;2022-12-29T05:03:00;13.50;;;5.88;;
55308;SDS011;44028;51.358;19.876;2022-12-29T05:05:27;12.48;;;5.25;;
55308;SDS011;44028;51.358;19.876;2022-12-29T05:07:56;12.50;;;5.15;;
55308;SDS011;44028;51.358;19.876;2022-12-29T05:10:23;11.43;;;5.15;;
55308;SDS011;44028;51.358;19.876;2022-12-29T05:12:50;13.77;;;6.30;;
55308;SDS011;44028;51.358;19.876;2022-12-29T05:15:17;13.35;;;5.97;;
55308;SDS011;44028;51.358;19.876;2022-12-29T05:17:45;13.95;;;6.13;;
55308;SDS011;44028;51.358;19.876;2022-12-29T05:20:12;16.08;;;5.88;;
55308;SDS011;44028;51.358;19.876;2022-12-29T05:22:39;10.55;;;5.28;;
55308;SDS011;44028;51.358;19.876;2022-12-29T05:25:06;16.10;;;6.30;;
55308;SDS011;44028;51.358;19.876;2022-12-29T05:27:33;14.48;;;5.68;;
55308;SDS011;44028;51.358;19.876;2022-12-29T05:30:00;13.05;;;5.00;;
55308;SDS011;44028;51.358;19.876;2022-12-29T05:32:27;12.05;;;5.28;;
55308;SDS011;44028;51.358;19.876;2022-12-29T05:34:54;13.43;;;5.80;;
55308;SDS011;44028;51.358;19.876;2022-12-29T05:37:21;12.52;;;5.55;;
55308;SDS011;44028;51.358;19.876;2022-12-29T05:39:48;13.27;;;6.05;;
55308;SDS011;44028;51.358;19.876;2022-12-29T05:42:15;12.40;;;5.80;;
55308;SDS011;44028;51.358;19.876;2022-12-29T05:44:42;15.63;;;6.25;;
55308;SDS011;44028;51.358;19.876;2022-12-29T05:47:09;14.32;;;7.28;;
55308;SDS011;44028;51.358;19.876;2022-12-29T05:49:36;17.67;;;8.88;;
55308;SDS011;44028;51.358;19.876;2022-12-29T05:52:03;17.02;;;5.95;;
55308;SDS011;44028;51.358;19.876;2022-12-29T05:54:30;12.48;;;5.75;;
55308;SDS011;44028;51.358;19.876;2022-12-29T05:56:57;13.30;;;6.50;;
55308;SDS011;44028;51.358;19.876;2022-12-29T05:59:24;13.38;;;5.28;;
55308;SDS011;44028;51.358;19.876;2022-12-29T06:01:51;12.52;;;5.05;;
55308;SDS011;44028;51.358;19.876;2022-12-29T06:04:19;12.80;;;5.45;;
55308;SDS011;44028;51.358;19.876;2022-12-29T06:06:46;14.52;;;5.75;;
55308;SDS011;44028;51.358;19.876;2022-12-29T06:09:13;12.32;;;5.35;;
55308;SDS011;44028;51.358;19.876;2022-12-29T06:11:42;12.63;;;5.20;;
55308;SDS011;44028;51.358;19.876;2022-12-29T06:14:09;11.80;;;5.68;;
55308;SDS011;44028;51.358;19.876;2022-12-29T06:16:36;9.65;;;5.72;;
55308;SDS011;44028;51.358;19.876;2022-12-29T06:19:03;10.57;;;5.13;;
55308;SDS011;44028;51.358;19.876;2022-12-29T06:21:30;11.18;;;5.35;;
55308;SDS011;44028;51.358;19.876;2022-12-29T06:23:57;10.02;;;5.50;;
55308;SDS011;44028;51.358;19.876;2022-12-29T06:26:24;15.35;;;5.78;;
55308;SDS011;44028;51.358;19.876;2022-12-29T06:28:51;11.77;;;5.30;;
55308;SDS011;44028;51.358;19.876;2022-12-29T06:31:18;12.30;;;5.57;;
55308;SDS011;44028;51.358;19.876;2022-12-29T06:33:45;12.27;;;5.80;;
55308;SDS011;44028;51.358;19.876;2022-12-29T06:36:15;15.60;;;6.85;;
55308;SDS011;44028;51.358;19.876;2022-12-29T06:38:43;14.05;;;5.55;;
55308;SDS011;44028;51.358;19.876;2022-12-29T06:41:13;18.10;;;6.53;;
55308;SDS011;44028;51.358;19.876;2022-12-29T06:43:40;26.02;;;8.32;;
55308;SDS011;44028;51.358;19.876;2022-12-29T06:46:07;32.90;;;9.73;;
55308;SDS011;44028;51.358;19.876;2022-12-29T06:48:34;30.48;;;8.52;;
55308;SDS011;44028;51.358;19.876;2022-12-29T06:51:01;18.83;;;7.25;;
55308;SDS011;44028;51.358;19.876;2022-12-29T06:53:28;20.45;;;7.30;;
55308;SDS011;44028;51.358;19.876;2022-12-29T06:55:56;15.75;;;6.00;;
55308;SDS011;44028;51.358;19.876;2022-12-29T06:58:23;14.95;;;5.93;;
55308;SDS011;44028;51.358;19.876;2022-12-29T07:00:50;14.93;;;5.85;;
55308;SDS011;44028;51.358;19.876;2022-12-29T07:03:17;17.05;;;7.22;;
55308;SDS011;44028;51.358;19.876;2022-12-29T07:06:01;12.57;;;6.00;;
55308;SDS011;44028;51.358;19.876;2022-12-29T07:08:28;17.40;;;6.63;;
55308;SDS011;44028;51.358;19.876;2022-12-29T07:10:55;16.08;;;6.88;;
55308;SDS011;44028;51.358;19.876;2022-12-29T07:13:21;11.60;;;6.00;;
55308;SDS011;44028;51.358;19.876;2022-12-29T07:15:48;13.43;;;6.45;;
55308;SDS011;44028;51.358;19.876;2022-12-29T07:18:15;12.73;;;6.63;;
55308;SDS011;44028;51.358;19.876;2022-12-29T07:20:42;11.45;;;6.05;;
55308;SDS011;44028;51.358;19.876;2022-12-29T07:23:09;13.88;;;5.82;;
55308;SDS011;44028;51.358;19.876;2022-12-29T07:25:36;13.50;;;5.65;;
55308;SDS011;44028;51.358;19.876;2022-12-29T07:28:03;21.48;;;7.18;;
55308;SDS011;44028;51.358;19.876;2022-12-29T07:30:30;20.30;;;8.27;;
55308;SDS011;44028;51.358;19.876;2022-12-29T07:32:58;17.30;;;7.53;;
55308;SDS011;44028;51.358;19.876;2022-12-29T07:35:25;17.70;;;8.82;;
55308;SDS011;44028;51.358;19.876;2022-12-29T07:37:52;13.95;;;6.30;;
55308;SDS011;44028;51.358;19.876;2022-12-29T07:40:19;17.08;;;7.60;;
55308;SDS011;44028;51.358;19.876;2022-12-29T07:42:49;15.73;;;7.80;;
55308;SDS011;44028;51.358;19.876;2022-12-29T07:45:19;13.32;;;6.50;;
55308;SDS011;44028;51.358;19.876;2022-12-29T07:47:49;14.20;;;6.10;;
55308;SDS011;44028;51.358;19.876;2022-12-29T07:50:16;15.80;;;6.10;;
55308;SDS011;44028;51.358;19.876;2022-12-29T07:52:43;11.80;;;5.90;;
55308;SDS011;44028;51.358;19.876;2022-12-29T07:55:11;12.77;;;5.68;;
55308;SDS011;44028;51.358;19.876;2022-12-29T07:57:38;15.25;;;6.28;;
55308;SDS011;44028;51.358;19.876;2022-12-29T08:00:05;12.88;;;5.78;;
55308;SDS011;44028;51.358;19.876;2022-12-29T08:02:32;18.35;;;9.13;;
55308;SDS011;44028;51.358;19.876;2022-12-29T08:04:59;23.33;;;14.00;;
55308;SDS011;44028;51.358;19.876;2022-12-29T08:07:26;100.78;;;32.28;;
55308;SDS011;44028;51.358;19.876;2022-12-29T08:09:56;27.25;;;9.85;;
55308;SDS011;44028;51.358;19.876;2022-12-29T08:12:23;15.13;;;6.95;;
55308;SDS011;44028;51.358;19.876;2022-12-29T08:14:50;16.35;;;6.40;;
55308;SDS011;44028;51.358;19.876;2022-12-29T08:17:17;15.85;;;6.32;;
55308;SDS011;44028;51.358;19.876;2022-12-29T08:19:44;21.40;;;7.97;;
55308;SDS011;44028;51.358;19.876;2022-12-29T08:22:14;16.20;;;7.10;;
55308;SDS011;44028;51.358;19.876;2022-12-29T08:24:41;17.20;;;6.30;;
55308;SDS011;44028;51.358;19.876;2022-12-29T08:27:11;27.27;;;8.77;;
55308;SDS011;44028;51.358;19.876;2022-12-29T08:29:46;34.67;;;10.60;;
55308;SDS011;44028;51.358;19.876;2022-12-29T08:32:13;28.90;;;9.23;;
55308;SDS011;44028;51.358;19.876;2022-12-29T08:34:43;33.55;;;10.45;;
55308;SDS011;44028;51.358;19.876;2022-12-29T08:37:10;32.95;;;9.60;;
55308;SDS011;44028;51.358;19.876;2022-12-29T08:39:37;42.72;;;13.48;;
55308;SDS011;44028;51.358;19.876;2022-12-29T08:42:04;34.35;;;10.95;;
55308;SDS011;44028;51.358;19.876;2022-12-29T08:44:31;40.70;;;13.23;;
55308;SDS011;44028;51.358;19.876;2022-12-29T08:47:04;32.75;;;10.60;;
55308;SDS011;44028;51.358;19.876;2022-12-29T08:49:31;37.20;;;12.38;;
55308;SDS011;44028;51.358;19.876;2022-12-29T08:51:59;44.20;;;14.55;;
55308;SDS011;44028;51.358;19.876;2022-12-29T08:54:26;27.70;;;9.15;;
55308;SDS011;44028;51.358;19.876;2022-12-29T08:56:53;32.47;;;10.40;;
55308;SDS011;44028;51.358;19.876;2022-12-29T08:59:41;25.67;;;9.75;;
55308;SDS011;44028;51.358;19.876;2022-12-29T09:02:12;45.00;;;14.45;;
55308;SDS011;44028;51.358;19.876;2022-12-29T09:04:45;31.50;;;13.77;;
55308;SDS011;44028;51.358;19.876;2022-12-29T09:07:12;46.65;;;13.77;;
55308;SDS011;44028;51.358;19.876;2022-12-29T09:09:39;35.42;;;11.32;;
55308;SDS011;44028;51.358;19.876;2022-12-29T09:12:06;36.05;;;12.27;;
55308;SDS011;44028;51.358;19.876;2022-12-29T09:14:33;24.65;;;8.27;;
55308;SDS011;44028;51.358;19.876;2022-12-29T09:17:00;42.63;;;13.75;;
55308;SDS011;44028;51.358;19.876;2022-12-29T09:19:41;35.75;;;13.82;;
55308;SDS011;44028;51.358;19.876;2022-12-29T09:22:20;39.92;;;13.98;;
55308;SDS011;44028;51.358;19.876;2022-12-29T09:24:54;46.42;;;16.67;;
55308;SDS011;44028;51.358;19.876;2022-12-29T09:27:20;39.80;;;14.30;;
55308;SDS011;44028;51.358;19.876;2022-12-29T09:29:47;45.30;;;17.30;;
55308;SDS011;44028;51.358;19.876;2022-12-29T09:32:14;37.13;;;13.10;;
55308;SDS011;44028;51.358;19.876;2022-12-29T09:34:45;37.72;;;13.82;;
55308;SDS011;44028;51.358;19.876;2022-12-29T09:37:12;23.40;;;9.32;;
55308;SDS011;44028;51.358;19.876;2022-12-29T09:39:39;32.08;;;12.13;;
55308;SDS011;44028;51.358;19.876;2022-12-29T09:47:16;22.77;;;7.93;;
55308;SDS011;44028;51.358;19.876;2022-12-29T09:49:48;21.25;;;8.65;;
55308;SDS011;44028;51.358;19.876;2022-12-29T09:52:26;27.77;;;9.80;;
55308;SDS011;44028;51.358;19.876;2022-12-29T09:54:57;21.23;;;7.40;;
55308;SDS011;44028;51.358;19.876;2022-12-29T09:57:47;22.80;;;8.70;;
55308;SDS011;44028;51.358;19.876;2022-12-29T10:03:10;28.80;;;9.93;;
55308;SDS011;44028;51.358;19.876;2022-12-29T10:05:50;21.88;;;7.78;;
55308;SDS011;44028;51.358;19.876;2022-12-29T10:10:54;21.88;;;7.90;;
55308;SDS011;44028;51.358;19.876;2022-12-29T10:16:18;18.38;;;7.47;;
55308;SDS011;44028;51.358;19.876;2022-12-29T10:19:09;23.33;;;9.38;;
55308;SDS011;44028;51.358;19.876;2022-12-29T10:21:38;24.92;;;9.13;;
55308;SDS011;44028;51.358;19.876;2022-12-29T10:24:10;17.92;;;7.70;;
55308;SDS011;44028;51.358;19.876;2022-12-29T10:26:41;19.80;;;8.27;;
55308;SDS011;44028;51.358;19.876;2022-12-29T10:31:50;32.35;;;13.60;;
55308;SDS011;44028;51.358;19.876;2022-12-29T10:34:22;21.67;;;11.40;;
55308;SDS011;44028;51.358;19.876;2022-12-29T10:36:53;127.38;;;51.50;;
55308;SDS011;44028;51.358;19.876;2022-12-29T10:39:23;83.03;;;24.20;;
55308;SDS011;44028;51.358;19.876;2022-12-29T10:42:09;70.43;;;20.65;;
55308;SDS011;44028;51.358;19.876;2022-12-29T10:44:38;38.50;;;12.18;;
55308;SDS011;44028;51.358;19.876;2022-12-29T10:49:46;56.83;;;15.18;;
55308;SDS011;44028;51.358;19.876;2022-12-29T10:52:14;40.53;;;11.70;;
55308;SDS011;44028;51.358;19.876;2022-12-29T10:54:44;21.05;;;8.63;;
55308;SDS011;44028;51.358;19.876;2022-12-29T10:59:47;19.50;;;8.25;;
55308;SDS011;44028;51.358;19.876;2022-12-29T11:02:38;24.25;;;9.05;;
55308;SDS011;44028;51.358;19.876;2022-12-29T11:07:42;16.60;;;7.20;;
55308;SDS011;44028;51.358;19.876;2022-12-29T11:10:16;26.83;;;9.25;;
55308;SDS011;44028;51.358;19.876;2022-12-29T11:15:41;46.80;;;13.75;;
55308;SDS011;44028;51.358;19.876;2022-12-29T11:23:56;61.92;;;16.38;;
55308;SDS011;44028;51.358;19.876;2022-12-29T11:26:24;36.47;;;11.57;;
55308;SDS011;44028;51.358;19.876;2022-12-29T11:31:55;44.22;;;13.80;;
55308;SDS011;44028;51.358;19.876;2022-12-29T11:34:33;32.70;;;11.93;;
55308;SDS011;44028;51.358;19.876;2022-12-29T11:37:02;39.17;;;13.90;;
55308;SDS011;44028;51.358;19.876;2022-12-29T11:47:35;21.77;;;9.00;;
55308;SDS011;44028;51.358;19.876;2022-12-29T11:52:39;19.05;;;8.18;;
55308;SDS011;44028;51.358;19.876;2022-12-29T12:00:55;20.45;;;8.90;;
55308;SDS011;44028;51.358;19.876;2022-12-29T12:03:23;16.65;;;6.68;;
55308;SDS011;44028;51.358;19.876;2022-12-29T12:05:55;15.02;;;6.65;;
55308;SDS011;44028;51.358;19.876;2022-12-29T12:11:30;16.85;;;7.75;;
55308;SDS011;44028;51.358;19.876;2022-12-29T12:14:05;14.25;;;6.32;;
55308;SDS011;44028;51.358;19.876;2022-12-29T12:16:38;18.98;;;7.95;;
55308;SDS011;44028;51.358;19.876;2022-12-29T12:22:03;15.75;;;7.85;;
55308;SDS011;44028;51.358;19.876;2022-12-29T12:24:39;17.30;;;8.02;;
55308;SDS011;44028;51.358;19.876;2022-12-29T12:27:15;17.92;;;7.30;;
55308;SDS011;44028;51.358;19.876;2022-12-29T12:35:13;19.13;;;7.60;;
55308;SDS011;44028;51.358;19.876;2022-12-29T12:46:14;20.63;;;9.07;;
55308;SDS011;44028;51.358;19.876;2022-12-29T13:00:12;17.45;;;7.95;;
55308;SDS011;44028;51.358;19.876;2022-12-29T13:28:29;18.95;;;7.60;;
55308;SDS011;44028;51.358;19.876;2022-12-29T14:11:53;49.65;;;24.80;;
55308;SDS011;44028;51.358;19.876;2022-12-29T14:17:23;31.38;;;14.38;;
55308;SDS011;44028;51.358;19.876;2022-12-29T14:19:54;31.25;;;13.90;;
55308;SDS011;44028;51.358;19.876;2022-12-29T14:22:25;66.75;;;31.20;;
55308;SDS011;44028;51.358;19.876;2022-12-29T14:24:59;47.08;;;17.85;;
55308;SDS011;44028;51.358;19.876;2022-12-29T14:29:59;32.70;;;11.68;;
55308;SDS011;44028;51.358;19.876;2022-12-29T14:35:00;53.85;;;17.88;;
55308;SDS011;44028;51.358;19.876;2022-12-29T14:37:50;41.33;;;19.55;;
55308;SDS011;44028;51.358;19.876;2022-12-29T14:40:31;71.28;;;27.90;;
55308;SDS011;44028;51.358;19.876;2022-12-29T14:43:00;54.65;;;23.67;;
55308;SDS011;44028;51.358;19.876;2022-12-29T14:45:30;57.92;;;27.13;;
55308;SDS011;44028;51.358;19.876;2022-12-29T14:47:59;67.75;;;31.95;;
55308;SDS011;44028;51.358;19.876;2022-12-29T14:50:38;62.35;;;29.85;;
55308;SDS011;44028;51.358;19.876;2022-12-29T14:53:05;62.38;;;24.05;;
55308;SDS011;44028;51.358;19.876;2022-12-29T15:00:44;94.30;;;31.23;;
55308;SDS011;44028;51.358;19.876;2022-12-29T15:03:22;49.75;;;20.02;;
55308;SDS011;44028;51.358;19.876;2022-12-29T15:05:51;58.33;;;22.45;;
55308;SDS011;44028;51.358;19.876;2022-12-29T15:08:25;69.47;;;26.50;;
55308;SDS011;44028;51.358;19.876;2022-12-29T15:10:55;43.85;;;20.95;;
55308;SDS011;44028;51.358;19.876;2022-12-29T15:13:31;63.67;;;32.45;;
55308;SDS011;44028;51.358;19.876;2022-12-29T15:15:59;46.35;;;20.23;;
55308;SDS011;44028;51.358;19.876;2022-12-29T15:18:27;50.20;;;19.83;;
55308;SDS011;44028;51.358;19.876;2022-12-29T15:20:55;48.65;;;16.65;;
55308;SDS011;44028;51.358;19.876;2022-12-29T15:23:23;54.17;;;19.35;;
55308;SDS011;44028;51.358;19.876;2022-12-29T15:28:21;136.13;;;57.38;;
55308;SDS011;44028;51.358;19.876;2022-12-29T15:30:55;69.25;;;30.20;;
55308;SDS011;44028;51.358;19.876;2022-12-29T15:33:23;60.00;;;25.45;;
55308;SDS011;44028;51.358;19.876;2022-12-29T15:35:56;48.00;;;16.30;;
55308;SDS011;44028;51.358;19.876;2022-12-29T15:41:04;48.70;;;18.85;;
55308;SDS011;44028;51.358;19.876;2022-12-29T15:43:37;45.50;;;18.20;;
55308;SDS011;44028;51.358;19.876;2022-12-29T15:46:12;52.63;;;22.50;;
55308;SDS011;44028;51.358;19.876;2022-12-29T15:48:43;63.45;;;26.27;;
55308;SDS011;44028;51.358;19.876;2022-12-29T15:51:22;57.13;;;23.35;;
55308;SDS011;44028;51.358;19.876;2022-12-29T15:53:56;52.63;;;22.83;;
55308;SDS011;44028;51.358;19.876;2022-12-29T15:56:24;37.45;;;14.85;;
55308;SDS011;44028;51.358;19.876;2022-12-29T15:58:51;46.38;;;19.15;;
55308;SDS011;44028;51.358;19.876;2022-12-29T16:01:19;40.80;;;17.73;;
55308;SDS011;44028;51.358;19.876;2022-12-29T16:03:50;35.58;;;15.32;;
55308;SDS011;44028;51.358;19.876;2022-12-29T16:06:28;33.45;;;13.80;;
55308;SDS011;44028;51.358;19.876;2022-12-29T16:08:56;31.73;;;12.77;;
55308;SDS011;44028;51.358;19.876;2022-12-29T16:11:27;59.83;;;27.77;;
55308;SDS011;44028;51.358;19.876;2022-12-29T16:13:57;47.35;;;22.08;;
55308;SDS011;44028;51.358;19.876;2022-12-29T16:16:28;47.03;;;16.20;;
55308;SDS011;44028;51.358;19.876;2022-12-29T16:18:57;49.45;;;19.38;;
55308;SDS011;44028;51.358;19.876;2022-12-29T16:21:28;35.17;;;15.15;;
55308;SDS011;44028;51.358;19.876;2022-12-29T16:23:56;33.10;;;15.77;;
55308;SDS011;44028;51.358;19.876;2022-12-29T16:26:24;32.45;;;16.67;;
55308;SDS011;44028;51.358;19.876;2022-12-29T16:28:54;32.53;;;15.02;;
55308;SDS011;44028;51.358;19.876;2022-12-29T16:31:23;35.45;;;15.20;;
55308;SDS011;44028;51.358;19.876;2022-12-29T16:36:26;61.75;;;22.63;;
55308;SDS011;44028;51.358;19.876;2022-12-29T16:41:35;81.75;;;31.25;;
55308;SDS011;44028;51.358;19.876;2022-12-29T16:46:36;50.45;;;19.70;;
55308;SDS011;44028;51.358;19.876;2022-12-29T16:49:07;51.15;;;20.65;;
55308;SDS011;44028;51.358;19.876;2022-12-29T16:51:48;44.95;;;17.23;;
55308;SDS011;44028;51.358;19.876;2022-12-29T16:57:04;49.50;;;20.23;;
55308;SDS011;44028;51.358;19.876;2022-12-29T17:02:15;46.58;;;20.85;;
55308;SDS011;44028;51.358;19.876;2022-12-29T17:04:43;48.35;;;19.30;;
55308;SDS011;44028;51.358;19.876;2022-12-29T17:07:15;71.88;;;22.60;;
55308;SDS011;44028;51.358;19.876;2022-12-29T17:09:43;37.60;;;15.48;;
55308;SDS011;44028;51.358;19.876;2022-12-29T17:12:17;46.28;;;19.58;;
55308;SDS011;44028;51.358;19.876;2022-12-29T17:14:55;43.60;;;16.10;;
55308;SDS011;44028;51.358;19.876;2022-12-29T17:19:51;61.13;;;20.15;;
55308;SDS011;44028;51.358;19.876;2022-12-29T17:22:26;32.90;;;15.13;;
55308;SDS011;44028;51.358;19.876;2022-12-29T17:24:55;27.58;;;13.43;;
55308;SDS011;44028;51.358;19.876;2022-12-29T17:27:30;25.52;;;11.55;;
55308;SDS011;44028;51.358;19.876;2022-12-29T17:29:58;27.80;;;13.00;;
55308;SDS011;44028;51.358;19.876;2022-12-29T17:32:26;33.40;;;15.38;;
55308;SDS011;44028;51.358;19.876;2022-12-29T17:34:53;29.77;;;13.43;;
55308;SDS011;44028;51.358;19.876;2022-12-29T17:42:39;30.20;;;13.48;;
55308;SDS011;44028;51.358;19.876;2022-12-29T17:45:12;32.55;;;12.93;;
55308;SDS011;44028;51.358;19.876;2022-12-29T17:47:39;39.22;;;17.77;;
55308;SDS011;44028;51.358;19.876;2022-12-29T17:50:17;36.88;;;16.38;;
55308;SDS011;44028;51.358;19.876;2022-12-29T17:52:46;47.67;;;20.65;;
55308;SDS011;44028;51.358;19.876;2022-12-29T17:55:14;55.90;;;22.25;;
55308;SDS011;44028;51.358;19.876;2022-12-29T17:57:42;35.90;;;16.58;;
55308;SDS011;44028;51.358;19.876;2022-12-29T18:00:16;38.55;;;17.00;;
55308;SDS011;44028;51.358;19.876;2022-12-29T18:02:44;35.30;;;16.02;;
55308;SDS011;44028;51.358;19.876;2022-12-29T18:05:19;34.47;;;14.35;;
55308;SDS011;44028;51.358;19.876;2022-12-29T18:07:47;36.50;;;16.40;;
55308;SDS011;44028;51.358;19.876;2022-12-29T18:10:14;30.65;;;14.20;;
55308;SDS011;44028;51.358;19.876;2022-12-29T18:12:42;31.92;;;14.63;;
55308;SDS011;44028;51.358;19.876;2022-12-29T18:15:15;35.60;;;16.40;;
55308;SDS011;44028;51.358;19.876;2022-12-29T18:17:43;37.95;;;15.55;;
55308;SDS011;44028;51.358;19.876;2022-12-29T18:20:10;35.17;;;16.88;;